sensor_id;sensor_type;location;lat;lon;timestamp;pressure;altitude;pressure_sealevel;temperature;humidity
28456;BME280;15682;56.742;38.866;2024-03-23T00:54:34;98430.0;;;1.5;87.7
28456;BME280;15682;56.742;38.866;2024-03-23T00:56:34;98430.0;;;1.6;87.7
28456;BME280;15682;56.742;38.866;2024-03-23T00:58:34;98430.0;;;1.6;87.7
28456;BME280;15682;56.742;38.866;2024-03-23T01:00:34;98430.0;;;1.6;87.7
28456;BME280;15682;56.742;38.866;2024-03-23T01:02:34;98430.0;;;1.6;87.7
28456;BME280;15682;56.742;38.866;2024-03-23T01:04:34;98430.0;;;1.6;87.5
28456;BME280;15682;56.742;38.866;2024-03-23T01:06:34;98420.0;;;1.7;87.5
28456;BME280;15682;56.742;38.866;2024-03-23T01:08:34;98420.0;;;1.7;87.5
28456;BME280;15682;56.742;38.866;2024-03-23T01:10:34;98420.0;;;1.7;87.5
28456;BME280;15682;56.742;38.866;2024-03-23T01:12:34;98420.0;;;1.7;87.5
28456;BME280;15682;56.742;38.866;2024-03-23T01:14:34;98410.0;;;1.7;88.3
28456;BME280;15682;56.742;38.866;2024-03-23T01:16:34;98410.0;;;1.7;88.3
28456;BME280;15682;56.742;38.866;2024-03-23T01:18:34;98410.0;;;1.7;88.3
28456;BME280;15682;56.742;38.866;2024-03-23T01:20:34;98410.0;;;1.7;88.3
28456;BME280;15682;56.742;38.866;2024-03-23T01:22:34;98410.0;;;1.7;88.9
28456;BME280;15682;56.742;38.866;2024-03-23T01:24:34;98390.0;;;1.7;88.7
28456;BME280;15682;56.742;38.866;2024-03-23T01:26:34;98380.0;;;1.7;88.7
28456;BME280;15682;56.742;38.866;2024-03-23T01:28:34;98380.0;;;1.7;88.2
28456;BME280;15682;56.742;38.866;2024-03-23T01:30:34;98380.0;;;1.7;88.2
28456;BME280;15682;56.742;38.866;2024-03-23T01:32:34;98380.0;;;1.7;88.9
28456;BME280;15682;56.742;38.866;2024-03-23T01:34:34;98380.0;;;1.7;89.0
28456;BME280;15682;56.742;38.866;2024-03-23T01:36:34;98380.0;;;1.7;89.4
28456;BME280;15682;56.742;38.866;2024-03-23T01:38:34;98370.0;;;1.7;89.4
28456;BME280;15682;56.742;38.866;2024-03-23T01:40:34;98360.0;;;1.7;89.4
28456;BME280;15682;56.742;38.866;2024-03-23T01:42:34;98350.0;;;1.7;90.0
28456;BME280;15682;56.742;38.866;2024-03-23T01:44:34;98350.0;;;1.7;90.1
28456;BME280;15682;56.742;38.866;2024-03-23T01:46:34;98350.0;;;1.6;90.1
28456;BME280;15682;56.742;38.866;2024-03-23T01:48:33;98350.0;;;1.6;90.6
28456;BME280;15682;56.742;38.866;2024-03-23T01:50:34;98350.0;;;1.6;90.6
28456;BME280;15682;56.742;38.866;2024-03-23T01:52:34;98350.0;;;1.6;90.6
28456;BME280;15682;56.742;38.866;2024-03-23T01:54:33;98350.0;;;1.6;90.5
28456;BME280;15682;56.742;38.866;2024-03-23T01:56:34;98350.0;;;1.6;90.5
28456;BME280;15682;56.742;38.866;2024-03-23T01:58:33;98350.0;;;1.6;90.5
28456;BME280;15682;56.742;38.866;2024-03-23T02:00:33;98340.0;;;1.6;90.5
28456;BME280;15682;56.742;38.866;2024-03-23T02:02:33;98340.0;;;1.6;90.5
28456;BME280;15682;56.742;38.866;2024-03-23T02:04:33;98340.0;;;1.6;90.4
28456;BME280;15682;56.742;38.866;2024-03-23T02:06:33;98330.0;;;1.5;91.2
28456;BME280;15682;56.742;38.866;2024-03-23T02:08:33;98330.0;;;1.5;90.7
28456;BME280;15682;56.742;38.866;2024-03-23T02:10:33;98330.0;;;1.5;90.7
28456;BME280;15682;56.742;38.866;2024-03-23T02:12:33;98320.0;;;1.5;90.7
28456;BME280;15682;56.742;38.866;2024-03-23T02:14:33;98320.0;;;1.5;91.1
28456;BME280;15682;56.742;38.866;2024-03-23T02:16:33;98320.0;;;1.6;91.1
28456;BME280;15682;56.742;38.866;2024-03-23T02:18:33;98320.0;;;1.6;91.6
28456;BME280;15682;56.742;38.866;2024-03-23T02:20:33;98320.0;;;1.5;91.6
28456;BME280;15682;56.742;38.866;2024-03-23T02:22:36;98320.0;;;1.5;92.4
28456;BME280;15682;56.742;38.866;2024-03-23T02:24:33;98300.0;;;1.6;92.2
28456;BME280;15682;56.742;38.866;2024-03-23T02:26:33;98300.0;;;1.6;92.2
28456;BME280;15682;56.742;38.866;2024-03-23T02:28:33;98300.0;;;1.6;93.1
28456;BME280;15682;56.742;38.866;2024-03-23T02:30:33;98300.0;;;1.6;92.5
28456;BME280;15682;56.742;38.866;2024-03-23T02:32:33;98300.0;;;1.6;93.2
28456;BME280;15682;56.742;38.866;2024-03-23T02:34:33;98300.0;;;1.6;93.1
28456;BME280;15682;56.742;38.866;2024-03-23T02:36:33;98280.0;;;1.5;93.1
28456;BME280;15682;56.742;38.866;2024-03-23T02:38:33;98280.0;;;1.5;93.1
28456;BME280;15682;56.742;38.866;2024-03-23T02:40:33;98280.0;;;1.5;93.1
28456;BME280;15682;56.742;38.866;2024-03-23T02:42:33;98280.0;;;1.5;93.7
28456;BME280;15682;56.742;38.866;2024-03-23T02:44:33;98270.0;;;1.5;93.6
28456;BME280;15682;56.742;38.866;2024-03-23T02:46:32;98270.0;;;1.4;93.6
28456;BME280;15682;56.742;38.866;2024-03-23T02:48:32;98250.0;;;1.4;93.6
28456;BME280;15682;56.742;38.866;2024-03-23T02:50:32;98250.0;;;1.4;93.6
28456;BME280;15682;56.742;38.866;2024-03-23T02:52:33;98250.0;;;1.4;93.6
28456;BME280;15682;56.742;38.866;2024-03-23T02:54:32;98250.0;;;1.4;94.3
28456;BME280;15682;56.742;38.866;2024-03-23T02:56:32;98250.0;;;1.5;93.7
28456;BME280;15682;56.742;38.866;2024-03-23T02:58:32;98240.0;;;1.5;93.7
28456;BME280;15682;56.742;38.866;2024-03-23T03:00:32;98240.0;;;1.5;93.7
28456;BME280;15682;56.742;38.866;2024-03-23T03:02:32;98230.0;;;1.6;93.7
28456;BME280;15682;56.742;38.866;2024-03-23T03:04:32;98230.0;;;1.6;93.7
28456;BME280;15682;56.742;38.866;2024-03-23T03:06:32;98220.0;;;1.5;93.7
28456;BME280;15682;56.742;38.866;2024-03-23T03:08:32;98220.0;;;1.5;93.7
28456;BME280;15682;56.742;38.866;2024-03-23T03:10:33;98220.0;;;1.5;93.7
28456;BME280;15682;56.742;38.866;2024-03-23T03:12:32;98220.0;;;1.5;93.7
28456;BME280;15682;56.742;38.866;2024-03-23T03:14:32;98220.0;;;1.5;93.5
28456;BME280;15682;56.742;38.866;2024-03-23T03:16:32;98210.0;;;1.7;93.5
28456;BME280;15682;56.742;38.866;2024-03-23T03:18:32;98200.0;;;1.7;93.5
28456;BME280;15682;56.742;38.866;2024-03-23T03:20:32;98200.0;;;1.7;93.5
28456;BME280;15682;56.742;38.866;2024-03-23T03:22:32;98200.0;;;1.7;93.5
28456;BME280;15682;56.742;38.866;2024-03-23T03:24:32;98200.0;;;1.7;93.5
28456;BME280;15682;56.742;38.866;2024-03-23T03:26:32;98190.0;;;1.8;93.5
28456;BME280;15682;56.742;38.866;2024-03-23T03:28:32;98190.0;;;1.8;93.5
28456;BME280;15682;56.742;38.866;2024-03-23T03:30:32;98190.0;;;1.8;93.5
28456;BME280;15682;56.742;38.866;2024-03-23T03:32:33;98190.0;;;1.8;93.5
28456;BME280;15682;56.742;38.866;2024-03-23T03:34:32;98180.0;;;1.9;93.3
28456;BME280;15682;56.742;38.866;2024-03-23T03:36:32;98170.0;;;1.9;93.3
28456;BME280;15682;56.742;38.866;2024-03-23T03:38:32;98170.0;;;1.9;93.3
28456;BME280;15682;56.742;38.866;2024-03-23T03:40:32;98170.0;;;2.0;93.1
28456;BME280;15682;56.742;38.866;2024-03-23T03:42:32;98160.0;;;2.0;93.1
28456;BME280;15682;56.742;38.866;2024-03-23T03:44:32;98160.0;;;2.0;93.1
28456;BME280;15682;56.742;38.866;2024-03-23T03:46:32;98160.0;;;2.0;93.1
28456;BME280;15682;56.742;38.866;2024-03-23T03:48:32;98160.0;;;2.0;93.1
28456;BME280;15682;56.742;38.866;2024-03-23T03:50:32;98150.0;;;2.0;93.1
28456;BME280;15682;56.742;38.866;2024-03-23T03:52:32;98150.0;;;2.0;93.1
28456;BME280;15682;56.742;38.866;2024-03-23T03:54:33;98150.0;;;2.0;93.4
28456;BME280;15682;56.742;38.866;2024-03-23T03:56:32;98140.0;;;2.0;93.4
28456;BME280;15682;56.742;38.866;2024-03-23T03:58:32;98140.0;;;2.0;93.4
28456;BME280;15682;56.742;38.866;2024-03-23T04:00:32;98140.0;;;2.0;93.4
28456;BME280;15682;56.742;38.866;2024-03-23T04:02:31;98140.0;;;2.0;93.7
28456;BME280;15682;56.742;38.866;2024-03-23T04:04:31;98130.0;;;2.0;93.7
28456;BME280;15682;56.742;38.866;2024-03-23T04:06:32;98130.0;;;1.9;93.7
28456;BME280;15682;56.742;38.866;2024-03-23T04:08:31;98130.0;;;1.9;94.4
28456;BME280;15682;56.742;38.866;2024-03-23T04:10:31;98130.0;;;1.9;94.4
28456;BME280;15682;56.742;38.866;2024-03-23T04:12:31;98120.0;;;1.9;94.4
28456;BME280;15682;56.742;38.866;2024-03-23T04:14:31;98120.0;;;1.9;94.4
28456;BME280;15682;56.742;38.866;2024-03-23T04:16:34;98120.0;;;2.0;94.4
28456;BME280;15682;56.742;38.866;2024-03-23T04:18:31;98120.0;;;2.1;93.9
28456;BME280;15682;56.742;38.866;2024-03-23T04:20:32;98110.0;;;2.1;93.9
28456;BME280;15682;56.742;38.866;2024-03-23T04:22:31;98100.0;;;2.2;93.9
28456;BME280;15682;56.742;38.866;2024-03-23T04:24:31;98100.0;;;2.2;93.6
28456;BME280;15682;56.742;38.866;2024-03-23T04:26:40;98090.0;;;2.3;93.6
28456;BME280;15682;56.742;38.866;2024-03-23T04:28:31;98090.0;;;2.3;93.6
28456;BME280;15682;56.742;38.866;2024-03-23T04:30:31;98090.0;;;2.1;94.9
28456;BME280;15682;56.742;38.866;2024-03-23T04:32:31;98090.0;;;2.1;94.9
28456;BME280;15682;56.742;38.866;2024-03-23T04:34:31;98090.0;;;2.1;94.8
28456;BME280;15682;56.742;38.866;2024-03-23T04:36:31;98090.0;;;2.2;94.8
28456;BME280;15682;56.742;38.866;2024-03-23T04:38:31;98090.0;;;2.2;94.8
28456;BME280;15682;56.742;38.866;2024-03-23T04:40:31;98090.0;;;2.2;94.8
28456;BME280;15682;56.742;38.866;2024-03-23T04:42:31;98080.0;;;2.2;94.8
28456;BME280;15682;56.742;38.866;2024-03-23T04:44:31;98070.0;;;2.2;95.5
28456;BME280;15682;56.742;38.866;2024-03-23T04:46:31;98070.0;;;2.2;95.5
28456;BME280;15682;56.742;38.866;2024-03-23T04:48:32;98070.0;;;2.2;95.5
28456;BME280;15682;56.742;38.866;2024-03-23T04:50:31;98070.0;;;2.2;95.5
28456;BME280;15682;56.742;38.866;2024-03-23T04:52:31;98070.0;;;2.2;95.5
28456;BME280;15682;56.742;38.866;2024-03-23T04:54:31;98070.0;;;2.2;95.3
28456;BME280;15682;56.742;38.866;2024-03-23T04:56:31;98070.0;;;2.2;95.3
28456;BME280;15682;56.742;38.866;2024-03-23T04:58:31;98070.0;;;2.2;95.3
28456;BME280;15682;56.742;38.866;2024-03-23T05:00:31;98070.0;;;2.4;95.3
28456;BME280;15682;56.742;38.866;2024-03-23T05:02:31;98070.0;;;2.4;95.3
28456;BME280;15682;56.742;38.866;2024-03-23T05:04:31;98070.0;;;2.5;95.1
28456;BME280;15682;56.742;38.866;2024-03-23T05:06:31;98070.0;;;2.4;94.8
28456;BME280;15682;56.742;38.866;2024-03-23T05:08:31;98070.0;;;2.4;95.4
28456;BME280;15682;56.742;38.866;2024-03-23T05:10:31;98060.0;;;2.4;95.4
28456;BME280;15682;56.742;38.866;2024-03-23T05:12:31;98040.0;;;2.4;95.4
28456;BME280;15682;56.742;38.866;2024-03-23T05:14:31;98040.0;;;2.4;95.3
28456;BME280;15682;56.742;38.866;2024-03-23T05:16:31;98040.0;;;2.6;95.3
28456;BME280;15682;56.742;38.866;2024-03-23T05:18:31;98040.0;;;3.0;94.8
28456;BME280;15682;56.742;38.866;2024-03-23T05:20:31;98040.0;;;3.0;94.1
28456;BME280;15682;56.742;38.866;2024-03-23T05:22:31;98020.0;;;3.0;94.1
28456;BME280;15682;56.742;38.866;2024-03-23T05:24:31;98020.0;;;2.8;94.7
28456;BME280;15682;56.742;38.866;2024-03-23T05:26:31;98020.0;;;3.0;94.7
28456;BME280;15682;56.742;38.866;2024-03-23T05:28:31;98020.0;;;3.0;94.7
28456;BME280;15682;56.742;38.866;2024-03-23T05:30:31;98020.0;;;3.0;94.7
28456;BME280;15682;56.742;38.866;2024-03-23T05:32:31;98020.0;;;2.8;95.2
28456;BME280;15682;56.742;38.866;2024-03-23T05:34:31;98010.0;;;2.8;95.3
28456;BME280;15682;56.742;38.866;2024-03-23T05:36:31;98010.0;;;3.0;95.3
28456;BME280;15682;56.742;38.866;2024-03-23T05:38:31;97990.0;;;3.1;94.6
28456;BME280;15682;56.742;38.866;2024-03-23T05:40:31;97990.0;;;3.1;94.6
28456;BME280;15682;56.742;38.866;2024-03-23T05:42:31;97990.0;;;3.1;94.6
28456;BME280;15682;56.742;38.866;2024-03-23T05:44:31;97990.0;;;3.0;94.7
28456;BME280;15682;56.742;38.866;2024-03-23T05:46:31;97990.0;;;3.1;94.7
28456;BME280;15682;56.742;38.866;2024-03-23T05:48:31;97990.0;;;2.9;94.7
28456;BME280;15682;56.742;38.866;2024-03-23T05:50:31;97990.0;;;3.1;94.7
28456;BME280;15682;56.742;38.866;2024-03-23T05:52:31;97990.0;;;3.1;94.7
28456;BME280;15682;56.742;38.866;2024-03-23T05:54:31;97990.0;;;3.1;94.4
28456;BME280;15682;56.742;38.866;2024-03-23T05:56:31;97980.0;;;3.1;94.4
28456;BME280;15682;56.742;38.866;2024-03-23T05:58:31;97980.0;;;3.1;94.7
28456;BME280;15682;56.742;38.866;2024-03-23T06:00:31;97980.0;;;3.0;94.7
28456;BME280;15682;56.742;38.866;2024-03-23T06:02:31;97980.0;;;3.0;94.7
28456;BME280;15682;56.742;38.866;2024-03-23T06:04:31;97970.0;;;3.0;95.4
28456;BME280;15682;56.742;38.866;2024-03-23T06:06:31;97970.0;;;3.1;95.4
28456;BME280;15682;56.742;38.866;2024-03-23T06:08:31;97970.0;;;3.2;94.9
28456;BME280;15682;56.742;38.866;2024-03-23T06:10:31;97970.0;;;3.0;95.4
28456;BME280;15682;56.742;38.866;2024-03-23T06:12:31;97960.0;;;3.1;95.4
28456;BME280;15682;56.742;38.866;2024-03-23T06:14:31;97960.0;;;3.1;95.3
28456;BME280;15682;56.742;38.866;2024-03-23T06:16:31;97950.0;;;3.0;96.1
28456;BME280;15682;56.742;38.866;2024-03-23T06:18:31;97940.0;;;2.9;96.1
28456;BME280;15682;56.742;38.866;2024-03-23T06:20:31;97940.0;;;3.0;96.1
28456;BME280;15682;56.742;38.866;2024-03-23T06:22:31;97940.0;;;3.0;96.1
28456;BME280;15682;56.742;38.866;2024-03-23T06:24:31;97940.0;;;3.0;96.2
28456;BME280;15682;56.742;38.866;2024-03-23T06:26:31;97940.0;;;3.1;96.2
28456;BME280;15682;56.742;38.866;2024-03-23T06:28:31;97940.0;;;3.1;96.2
28456;BME280;15682;56.742;38.866;2024-03-23T06:30:31;97930.0;;;3.0;96.2
28456;BME280;15682;56.742;38.866;2024-03-23T06:32:32;97930.0;;;3.0;96.2
28456;BME280;15682;56.742;38.866;2024-03-23T06:34:31;97930.0;;;3.0;96.3
28456;BME280;15682;56.742;38.866;2024-03-23T06:36:31;97930.0;;;3.0;96.3
28456;BME280;15682;56.742;38.866;2024-03-23T06:38:31;97930.0;;;3.0;96.3
28456;BME280;15682;56.742;38.866;2024-03-23T06:40:31;97930.0;;;3.2;96.3
28456;BME280;15682;56.742;38.866;2024-03-23T06:42:31;97930.0;;;3.2;96.3
28456;BME280;15682;56.742;38.866;2024-03-23T06:44:31;97930.0;;;3.2;95.5
28456;BME280;15682;56.742;38.866;2024-03-23T06:46:32;97930.0;;;3.2;95.5
28456;BME280;15682;56.742;38.866;2024-03-23T06:48:31;97920.0;;;3.0;96.1
28456;BME280;15682;56.742;38.866;2024-03-23T06:50:31;97910.0;;;3.0;96.1
28456;BME280;15682;56.742;38.866;2024-03-23T06:52:31;97910.0;;;3.2;96.6
28456;BME280;15682;56.742;38.866;2024-03-23T06:54:31;97910.0;;;3.2;95.8
28456;BME280;15682;56.742;38.866;2024-03-23T06:56:31;97910.0;;;3.2;95.8
28456;BME280;15682;56.742;38.866;2024-03-23T06:58:31;97910.0;;;3.2;95.8
28456;BME280;15682;56.742;38.866;2024-03-23T07:00:32;97910.0;;;3.2;95.8
28456;BME280;15682;56.742;38.866;2024-03-23T07:02:31;97910.0;;;3.2;95.8
28456;BME280;15682;56.742;38.866;2024-03-23T07:04:31;97910.0;;;3.2;96.5
28456;BME280;15682;56.742;38.866;2024-03-23T07:06:31;97900.0;;;3.1;96.5
28456;BME280;15682;56.742;38.866;2024-03-23T07:08:31;97900.0;;;3.1;96.0
28456;BME280;15682;56.742;38.866;2024-03-23T07:10:31;97880.0;;;3.0;96.1
28456;BME280;15682;56.742;38.866;2024-03-23T07:12:31;97880.0;;;3.0;96.1
28456;BME280;15682;56.742;38.866;2024-03-23T07:14:31;97880.0;;;3.2;96.0
28456;BME280;15682;56.742;38.866;2024-03-23T07:16:32;97880.0;;;3.3;96.0
28456;BME280;15682;56.742;38.866;2024-03-23T07:18:32;97880.0;;;3.3;96.0
28456;BME280;15682;56.742;38.866;2024-03-23T07:20:32;97880.0;;;3.3;96.0
28456;BME280;15682;56.742;38.866;2024-03-23T07:22:32;97880.0;;;3.3;96.0
28456;BME280;15682;56.742;38.866;2024-03-23T07:24:32;97870.0;;;3.3;96.2
28456;BME280;15682;56.742;38.866;2024-03-23T07:26:32;97870.0;;;3.3;96.2
28456;BME280;15682;56.742;38.866;2024-03-23T07:28:32;97870.0;;;3.3;96.2
28456;BME280;15682;56.742;38.866;2024-03-23T07:30:32;97870.0;;;3.3;96.2
28456;BME280;15682;56.742;38.866;2024-03-23T07:32:32;97860.0;;;3.2;96.2
28456;BME280;15682;56.742;38.866;2024-03-23T07:34:32;97860.0;;;3.2;96.4
28456;BME280;15682;56.742;38.866;2024-03-23T07:36:32;97850.0;;;3.2;96.4
28456;BME280;15682;56.742;38.866;2024-03-23T07:38:32;97850.0;;;3.2;96.4
28456;BME280;15682;56.742;38.866;2024-03-23T07:40:32;97850.0;;;3.3;96.7
28456;BME280;15682;56.742;38.866;2024-03-23T07:42:32;97850.0;;;3.3;96.1
28456;BME280;15682;56.742;38.866;2024-03-23T07:44:32;97850.0;;;3.3;96.2
28456;BME280;15682;56.742;38.866;2024-03-23T07:46:32;97850.0;;;3.3;96.2
28456;BME280;15682;56.742;38.866;2024-03-23T07:48:32;97850.0;;;3.3;96.2
28456;BME280;15682;56.742;38.866;2024-03-23T07:50:32;97850.0;;;3.3;96.2
28456;BME280;15682;56.742;38.866;2024-03-23T07:52:32;97840.0;;;3.3;96.2
28456;BME280;15682;56.742;38.866;2024-03-23T07:54:32;97840.0;;;3.3;95.6
28456;BME280;15682;56.742;38.866;2024-03-23T07:56:32;97840.0;;;3.4;95.6
28456;BME280;15682;56.742;38.866;2024-03-23T07:58:32;97840.0;;;3.4;95.6
28456;BME280;15682;56.742;38.866;2024-03-23T08:00:33;97840.0;;;3.4;95.6
28456;BME280;15682;56.742;38.866;2024-03-23T08:02:32;97840.0;;;3.4;95.6
28456;BME280;15682;56.742;38.866;2024-03-23T08:04:32;97830.0;;;3.5;96.2
28456;BME280;15682;56.742;38.866;2024-03-23T08:06:32;97820.0;;;3.5;95.5
28456;BME280;15682;56.742;38.866;2024-03-23T08:08:32;97820.0;;;3.6;95.5
28456;BME280;15682;56.742;38.866;2024-03-23T08:10:32;97820.0;;;3.5;95.5
28456;BME280;15682;56.742;38.866;2024-03-23T08:12:32;97820.0;;;3.5;95.5
28456;BME280;15682;56.742;38.866;2024-03-23T08:14:32;97820.0;;;3.5;96.6
28456;BME280;15682;56.742;38.866;2024-03-23T08:16:32;97820.0;;;3.6;96.0
28456;BME280;15682;56.742;38.866;2024-03-23T08:18:32;97820.0;;;3.6;96.0
28456;BME280;15682;56.742;38.866;2024-03-23T08:20:32;97820.0;;;3.6;96.0
28456;BME280;15682;56.742;38.866;2024-03-23T08:22:32;97820.0;;;3.5;96.0
28456;BME280;15682;56.742;38.866;2024-03-23T08:24:32;97820.0;;;3.5;95.5
28456;BME280;15682;56.742;38.866;2024-03-23T08:26:32;97820.0;;;3.8;95.5
28456;BME280;15682;56.742;38.866;2024-03-23T08:28:32;97810.0;;;3.7;95.5
28456;BME280;15682;56.742;38.866;2024-03-23T08:30:34;97800.0;;;3.8;95.5
28456;BME280;15682;56.742;38.866;2024-03-23T08:32:32;97800.0;;;3.9;94.9
28456;BME280;15682;56.742;38.866;2024-03-23T08:34:32;97800.0;;;3.8;95.6
28456;BME280;15682;56.742;38.866;2024-03-23T08:36:32;97800.0;;;3.8;95.6
28456;BME280;15682;56.742;38.866;2024-03-23T08:38:32;97800.0;;;3.8;95.6
28456;BME280;15682;56.742;38.866;2024-03-23T08:40:32;97800.0;;;3.8;96.3
28456;BME280;15682;56.742;38.866;2024-03-23T08:42:32;97800.0;;;3.8;96.3
28456;BME280;15682;56.742;38.866;2024-03-23T08:44:32;97800.0;;;3.8;95.4
28456;BME280;15682;56.742;38.866;2024-03-23T08:46:32;97790.0;;;3.9;95.4
28456;BME280;15682;56.742;38.866;2024-03-23T08:48:32;97800.0;;;3.7;95.4
28456;BME280;15682;56.742;38.866;2024-03-23T08:50:32;97800.0;;;3.6;95.4
28456;BME280;15682;56.742;38.866;2024-03-23T08:52:32;97800.0;;;3.7;96.5
28456;BME280;15682;56.742;38.866;2024-03-23T08:54:32;97800.0;;;3.6;96.8
28456;BME280;15682;56.742;38.866;2024-03-23T08:56:32;97790.0;;;3.6;96.8
28456;BME280;15682;56.742;38.866;2024-03-23T08:58:34;97790.0;;;3.8;95.8
28456;BME280;15682;56.742;38.866;2024-03-23T09:00:32;97790.0;;;3.9;95.8
28456;BME280;15682;56.742;38.866;2024-03-23T09:02:32;97790.0;;;3.9;95.8
28456;BME280;15682;56.742;38.866;2024-03-23T09:04:32;97780.0;;;3.8;95.8
28456;BME280;15682;56.742;38.866;2024-03-23T09:06:32;97780.0;;;3.8;95.8
28456;BME280;15682;56.742;38.866;2024-03-23T09:08:32;97780.0;;;3.8;95.8
28456;BME280;15682;56.742;38.866;2024-03-23T09:10:37;97780.0;;;3.8;95.8
28456;BME280;15682;56.742;38.866;2024-03-23T09:12:32;97770.0;;;3.7;96.4
28456;BME280;15682;56.742;38.866;2024-03-23T09:14:33;97770.0;;;3.7;96.1
28456;BME280;15682;56.742;38.866;2024-03-23T09:16:32;97770.0;;;3.9;95.9
28456;BME280;15682;56.742;38.866;2024-03-23T09:18:33;97770.0;;;4.0;95.9
28456;BME280;15682;56.742;38.866;2024-03-23T09:20:33;97770.0;;;4.2;95.1
28456;BME280;15682;56.742;38.866;2024-03-23T09:22:32;97760.0;;;4.2;94.2
28456;BME280;15682;56.742;38.866;2024-03-23T09:24:32;97760.0;;;4.5;93.8
28456;BME280;15682;56.742;38.866;2024-03-23T09:26:32;97760.0;;;4.6;93.8
28456;BME280;15682;56.742;38.866;2024-03-23T09:28:33;97760.0;;;4.4;94.5
28456;BME280;15682;56.742;38.866;2024-03-23T09:30:33;97760.0;;;4.2;94.5
28456;BME280;15682;56.742;38.866;2024-03-23T09:32:33;97760.0;;;3.8;96.3
28456;BME280;15682;56.742;38.866;2024-03-23T09:34:34;97760.0;;;4.0;96.3
28456;BME280;15682;56.742;38.866;2024-03-23T09:36:33;97760.0;;;4.1;95.4
28456;BME280;15682;56.742;38.866;2024-03-23T09:38:33;97760.0;;;4.1;96.1
28456;BME280;15682;56.742;38.866;2024-03-23T09:40:33;97760.0;;;3.9;96.1
28456;BME280;15682;56.742;38.866;2024-03-23T09:42:33;97750.0;;;3.9;96.1
28456;BME280;15682;56.742;38.866;2024-03-23T09:44:33;97740.0;;;4.0;95.5
28456;BME280;15682;56.742;38.866;2024-03-23T09:46:33;97740.0;;;3.9;96.3
28456;BME280;15682;56.742;38.866;2024-03-23T09:48:33;97740.0;;;3.8;96.3
28456;BME280;15682;56.742;38.866;2024-03-23T09:50:33;97750.0;;;3.8;97.1
28456;BME280;15682;56.742;38.866;2024-03-23T09:52:33;97750.0;;;4.0;96.6
28456;BME280;15682;56.742;38.866;2024-03-23T09:54:33;97750.0;;;4.1;96.5
28456;BME280;15682;56.742;38.866;2024-03-23T09:56:33;97750.0;;;4.2;95.8
28456;BME280;15682;56.742;38.866;2024-03-23T09:58:33;97750.0;;;4.2;96.5
28456;BME280;15682;56.742;38.866;2024-03-23T10:00:34;97750.0;;;4.4;95.8
28456;BME280;15682;56.742;38.866;2024-03-23T10:02:34;97750.0;;;4.2;95.8
28456;BME280;15682;56.742;38.866;2024-03-23T10:04:37;97750.0;;;4.2;96.8
28456;BME280;15682;56.742;38.866;2024-03-23T10:06:33;97750.0;;;4.1;96.8
28456;BME280;15682;56.742;38.866;2024-03-23T10:08:33;97760.0;;;4.1;96.8
28456;BME280;15682;56.742;38.866;2024-03-23T10:10:34;97760.0;;;4.2;96.8
28456;BME280;15682;56.742;38.866;2024-03-23T10:12:33;97760.0;;;4.3;96.8
28456;BME280;15682;56.742;38.866;2024-03-23T10:14:33;97760.0;;;4.3;96.7
28456;BME280;15682;56.742;38.866;2024-03-23T10:16:34;97760.0;;;4.2;96.7
28456;BME280;15682;56.742;38.866;2024-03-23T10:18:37;97750.0;;;4.3;96.7
28456;BME280;15682;56.742;38.866;2024-03-23T10:20:34;97750.0;;;4.2;97.4
28456;BME280;15682;56.742;38.866;2024-03-23T10:22:37;97750.0;;;4.2;96.9
28456;BME280;15682;56.742;38.866;2024-03-23T10:24:34;97750.0;;;4.2;96.4
28456;BME280;15682;56.742;38.866;2024-03-23T10:26:34;97750.0;;;4.2;96.4
28456;BME280;15682;56.742;38.866;2024-03-23T10:28:34;97750.0;;;4.2;96.4
28456;BME280;15682;56.742;38.866;2024-03-23T10:30:34;97750.0;;;4.2;96.4
28456;BME280;15682;56.742;38.866;2024-03-23T10:32:34;97750.0;;;4.3;96.4
28456;BME280;15682;56.742;38.866;2024-03-23T10:34:34;97750.0;;;4.3;96.8
28456;BME280;15682;56.742;38.866;2024-03-23T10:36:34;97750.0;;;4.3;96.8
28456;BME280;15682;56.742;38.866;2024-03-23T10:38:34;97750.0;;;4.2;96.8
28456;BME280;15682;56.742;38.866;2024-03-23T10:40:35;97750.0;;;4.2;96.8
28456;BME280;15682;56.742;38.866;2024-03-23T10:42:34;97750.0;;;4.3;96.1
28456;BME280;15682;56.742;38.866;2024-03-23T10:44:35;97750.0;;;4.2;96.9
28456;BME280;15682;56.742;38.866;2024-03-23T10:46:34;97750.0;;;4.2;97.6
28456;BME280;15682;56.742;38.866;2024-03-23T10:48:35;97750.0;;;4.2;97.6
28456;BME280;15682;56.742;38.866;2024-03-23T10:50:34;97750.0;;;4.3;96.8
28456;BME280;15682;56.742;38.866;2024-03-23T10:52:35;97750.0;;;4.3;96.8
28456;BME280;15682;56.742;38.866;2024-03-23T10:54:34;97750.0;;;4.3;97.0
28456;BME280;15682;56.742;38.866;2024-03-23T10:56:36;97750.0;;;4.2;97.5
28456;BME280;15682;56.742;38.866;2024-03-23T10:58:38;97750.0;;;4.3;96.8
28456;BME280;15682;56.742;38.866;2024-03-23T11:00:34;97750.0;;;4.3;96.8
28456;BME280;15682;56.742;38.866;2024-03-23T11:02:34;97750.0;;;4.4;96.8
28456;BME280;15682;56.742;38.866;2024-03-23T11:04:35;97750.0;;;4.4;96.7
28456;BME280;15682;56.742;38.866;2024-03-23T11:06:36;97750.0;;;4.5;96.3
28456;BME280;15682;56.742;38.866;2024-03-23T11:08:35;97750.0;;;4.5;96.9
28456;BME280;15682;56.742;38.866;2024-03-23T11:10:35;97750.0;;;4.5;96.2
28456;BME280;15682;56.742;38.866;2024-03-23T11:12:35;97750.0;;;4.5;97.3
28456;BME280;15682;56.742;38.866;2024-03-23T11:14:35;97750.0;;;4.5;97.2
28456;BME280;15682;56.742;38.866;2024-03-23T11:16:35;97750.0;;;4.4;96.7
28456;BME280;15682;56.742;38.866;2024-03-23T11:18:35;97750.0;;;4.4;96.7
28456;BME280;15682;56.742;38.866;2024-03-23T11:20:35;97750.0;;;4.5;96.7
28456;BME280;15682;56.742;38.866;2024-03-23T11:22:39;97750.0;;;4.5;96.7
28456;BME280;15682;56.742;38.866;2024-03-23T11:24:35;97750.0;;;4.5;97.2
28456;BME280;15682;56.742;38.866;2024-03-23T11:26:38;97750.0;;;4.5;97.2
28456;BME280;15682;56.742;38.866;2024-03-23T11:28:35;97750.0;;;4.6;96.5
28456;BME280;15682;56.742;38.866;2024-03-23T11:30:35;97750.0;;;4.8;96.5
28456;BME280;15682;56.742;38.866;2024-03-23T11:32:35;97750.0;;;4.8;96.0
28456;BME280;15682;56.742;38.866;2024-03-23T11:34:35;97750.0;;;5.0;95.5
28456;BME280;15682;56.742;38.866;2024-03-23T11:36:35;97750.0;;;4.8;95.5
28456;BME280;15682;56.742;38.866;2024-03-23T11:38:36;97750.0;;;4.8;95.5
28456;BME280;15682;56.742;38.866;2024-03-23T11:40:37;97750.0;;;4.7;97.0
28456;BME280;15682;56.742;38.866;2024-03-23T11:42:35;97750.0;;;4.8;97.0
28456;BME280;15682;56.742;38.866;2024-03-23T11:44:35;97750.0;;;4.8;96.8
28456;BME280;15682;56.742;38.866;2024-03-23T11:46:35;97750.0;;;4.7;96.8
28456;BME280;15682;56.742;38.866;2024-03-23T11:48:35;97740.0;;;4.7;96.8
28456;BME280;15682;56.742;38.866;2024-03-23T11:50:38;97740.0;;;4.7;96.4
28456;BME280;15682;56.742;38.866;2024-03-23T11:52:36;97740.0;;;4.7;97.1
28456;BME280;15682;56.742;38.866;2024-03-23T11:54:36;97740.0;;;4.6;97.0